sensor_id;sensor_type;location;lat;lon;timestamp;P1;durP1;ratioP1;P2;durP2;ratioP2
75156;SDS011;63736;50.076;8.198;2023-02-15T00:01:10;288.70;;;31.70;;
75156;SDS011;63736;50.076;8.198;2023-02-15T00:03:36;303.80;;;32.35;;
75156;SDS011;63736;50.076;8.198;2023-02-15T00:06:02;299.00;;;34.33;;
75156;SDS011;63736;50.076;8.198;2023-02-15T00:08:28;291.73;;;29.10;;
75156;SDS011;63736;50.076;8.198;2023-02-15T00:10:53;295.20;;;36.05;;
75156;SDS011;63736;50.076;8.198;2023-02-15T00:13:28;277.10;;;26.20;;
75156;SDS011;63736;50.076;8.198;2023-02-15T00:15:53;280.07;;;33.53;;
75156;SDS011;63736;50.076;8.198;2023-02-15T00:18:19;290.55;;;30.25;;
75156;SDS011;63736;50.076;8.198;2023-02-15T00:20:44;279.17;;;33.60;;
75156;SDS011;63736;50.076;8.198;2023-02-15T00:23:09;274.80;;;27.20;;
75156;SDS011;63736;50.076;8.198;2023-02-15T00:27:59;271.40;;;27.60;;
75156;SDS011;63736;50.076;8.198;2023-02-15T00:30:25;272.60;;;27.10;;
75156;SDS011;63736;50.076;8.198;2023-02-15T00:32:50;270.33;;;27.30;;
75156;SDS011;63736;50.076;8.198;2023-02-15T00:35:15;277.07;;;28.57;;
75156;SDS011;63736;50.076;8.198;2023-02-15T00:37:40;274.60;;;27.10;;
75156;SDS011;63736;50.076;8.198;2023-02-15T00:52:12;281.95;;;27.80;;
75156;SDS011;63736;50.076;8.198;2023-02-15T00:54:37;273.70;;;27.00;;
75156;SDS011;63736;50.076;8.198;2023-02-15T00:57:03;273.20;;;27.30;;
75156;SDS011;63736;50.076;8.198;2023-02-15T00:59:28;271.60;;;27.20;;
75156;SDS011;63736;50.076;8.198;2023-02-15T01:01:54;273.40;;;26.30;;
75156;SDS011;63736;50.076;8.198;2023-02-15T01:04:19;274.10;;;27.50;;
75156;SDS011;63736;50.076;8.198;2023-02-15T01:06:44;271.35;;;27.20;;
75156;SDS011;63736;50.076;8.198;2023-02-15T01:09:09;275.40;;;27.43;;
75156;SDS011;63736;50.076;8.198;2023-02-15T01:26:11;267.20;;;26.50;;
75156;SDS011;63736;50.076;8.198;2023-02-15T01:28:37;272.07;;;26.17;;
75156;SDS011;63736;50.076;8.198;2023-02-15T01:31:06;275.07;;;29.97;;
75156;SDS011;63736;50.076;8.198;2023-02-15T01:33:50;282.20;;;27.20;;
75156;SDS011;63736;50.076;8.198;2023-02-15T01:36:15;276.90;;;26.80;;
75156;SDS011;63736;50.076;8.198;2023-02-15T01:38:42;265.83;;;26.07;;
75156;SDS011;63736;50.076;8.198;2023-02-15T01:48:38;287.30;;;30.50;;
75156;SDS011;63736;50.076;8.198;2023-02-15T01:51:10;285.13;;;30.50;;
75156;SDS011;63736;50.076;8.198;2023-02-15T01:53:43;283.42;;;27.52;;
75156;SDS011;63736;50.076;8.198;2023-02-15T01:56:15;284.07;;;28.53;;
75156;SDS011;63736;50.076;8.198;2023-02-15T01:58:46;279.10;;;26.60;;
75156;SDS011;63736;50.076;8.198;2023-02-15T02:01:12;279.07;;;26.77;;
75156;SDS011;63736;50.076;8.198;2023-02-15T02:06:37;275.70;;;26.00;;
75156;SDS011;63736;50.076;8.198;2023-02-15T02:09:04;283.15;;;27.50;;
75156;SDS011;63736;50.076;8.198;2023-02-15T02:11:29;279.67;;;26.07;;
75156;SDS011;63736;50.076;8.198;2023-02-15T02:13:55;281.90;;;27.40;;
75156;SDS011;63736;50.076;8.198;2023-02-15T02:16:25;285.50;;;28.43;;
75156;SDS011;63736;50.076;8.198;2023-02-15T02:24:40;282.90;;;28.10;;
75156;SDS011;63736;50.076;8.198;2023-02-15T02:33:11;284.50;;;27.45;;
75156;SDS011;63736;50.076;8.198;2023-02-15T02:41:29;282.00;;;27.20;;
75156;SDS011;63736;50.076;8.198;2023-02-15T02:44:07;277.55;;;27.50;;
75156;SDS011;63736;50.076;8.198;2023-02-15T02:47:14;278.30;;;28.23;;
75156;SDS011;63736;50.076;8.198;2023-02-15T02:49:44;276.50;;;26.45;;
75156;SDS011;63736;50.076;8.198;2023-02-15T02:55:03;282.03;;;29.20;;
75156;SDS011;63736;50.076;8.198;2023-02-15T02:57:33;275.10;;;27.60;;
75156;SDS011;63736;50.076;8.198;2023-02-15T03:00:02;274.50;;;26.80;;
75156;SDS011;63736;50.076;8.198;2023-02-15T03:02:34;276.33;;;26.53;;
75156;SDS011;63736;50.076;8.198;2023-02-15T03:05:04;278.60;;;27.10;;
75156;SDS011;63736;50.076;8.198;2023-02-15T03:07:33;280.65;;;28.48;;
75156;SDS011;63736;50.076;8.198;2023-02-15T03:10:01;281.30;;;27.60;;
75156;SDS011;63736;50.076;8.198;2023-02-15T03:12:34;286.65;;;33.05;;
75156;SDS011;63736;50.076;8.198;2023-02-15T03:15:09;281.25;;;28.63;;
75156;SDS011;63736;50.076;8.198;2023-02-15T03:17:42;283.00;;;31.50;;
75156;SDS011;63736;50.076;8.198;2023-02-15T03:20:17;278.73;;;27.40;;
75156;SDS011;63736;50.076;8.198;2023-02-15T03:22:48;284.60;;;31.30;;
75156;SDS011;63736;50.076;8.198;2023-02-15T03:25:27;279.30;;;27.40;;
75156;SDS011;63736;50.076;8.198;2023-02-15T03:27:59;283.33;;;29.13;;
75156;SDS011;63736;50.076;8.198;2023-02-15T03:30:28;275.63;;;26.33;;
75156;SDS011;63736;50.076;8.198;2023-02-15T03:32:56;283.20;;;31.90;;
75156;SDS011;63736;50.076;8.198;2023-02-15T03:35:24;279.58;;;26.77;;
75156;SDS011;63736;50.076;8.198;2023-02-15T03:37:59;292.98;;;34.70;;
75156;SDS011;63736;50.076;8.198;2023-02-15T03:40:30;281.80;;;26.70;;
75156;SDS011;63736;50.076;8.198;2023-02-15T03:43:43;286.25;;;28.15;;
75156;SDS011;63736;50.076;8.198;2023-02-15T03:46:20;287.40;;;28.70;;
75156;SDS011;63736;50.076;8.198;2023-02-15T03:48:53;300.40;;;31.30;;
75156;SDS011;63736;50.076;8.198;2023-02-15T03:51:23;306.20;;;32.50;;
75156;SDS011;63736;50.076;8.198;2023-02-15T03:53:58;308.50;;;33.42;;
75156;SDS011;63736;50.076;8.198;2023-02-15T03:56:36;303.70;;;31.20;;
75156;SDS011;63736;50.076;8.198;2023-02-15T03:59:03;313.20;;;33.93;;
75156;SDS011;63736;50.076;8.198;2023-02-15T04:04:22;313.55;;;34.85;;
75156;SDS011;63736;50.076;8.198;2023-02-15T04:06:51;319.92;;;35.15;;
75156;SDS011;63736;50.076;8.198;2023-02-15T04:12:00;308.30;;;33.90;;
75156;SDS011;63736;50.076;8.198;2023-02-15T04:14:25;319.33;;;34.60;;
75156;SDS011;63736;50.076;8.198;2023-02-15T04:17:09;309.00;;;33.15;;
75156;SDS011;63736;50.076;8.198;2023-02-15T04:19:35;317.10;;;34.50;;
75156;SDS011;63736;50.076;8.198;2023-02-15T04:22:19;307.10;;;32.30;;
75156;SDS011;63736;50.076;8.198;2023-02-15T04:25:03;310.97;;;33.33;;
75156;SDS011;63736;50.076;8.198;2023-02-15T04:27:36;306.63;;;36.77;;
75156;SDS011;63736;50.076;8.198;2023-02-15T04:30:02;302.53;;;31.10;;
75156;SDS011;63736;50.076;8.198;2023-02-15T04:32:28;303.17;;;34.00;;
75156;SDS011;63736;50.076;8.198;2023-02-15T04:34:53;302.77;;;32.63;;
75156;SDS011;63736;50.076;8.198;2023-02-15T04:37:19;303.50;;;30.53;;
75156;SDS011;63736;50.076;8.198;2023-02-15T04:39:44;302.45;;;31.30;;
75156;SDS011;63736;50.076;8.198;2023-02-15T04:42:09;303.90;;;32.53;;
75156;SDS011;63736;50.076;8.198;2023-02-15T04:44:34;301.63;;;31.30;;
75156;SDS011;63736;50.076;8.198;2023-02-15T04:47:00;298.50;;;31.35;;
75156;SDS011;63736;50.076;8.198;2023-02-15T04:49:25;297.13;;;30.00;;
75156;SDS011;63736;50.076;8.198;2023-02-15T04:51:50;296.10;;;29.50;;
75156;SDS011;63736;50.076;8.198;2023-02-15T04:54:15;295.87;;;29.03;;
75156;SDS011;63736;50.076;8.198;2023-02-15T04:56:41;293.70;;;29.37;;
75156;SDS011;63736;50.076;8.198;2023-02-15T04:59:09;290.63;;;28.25;;
75156;SDS011;63736;50.076;8.198;2023-02-15T05:01:35;293.00;;;30.05;;
75156;SDS011;63736;50.076;8.198;2023-02-15T05:04:01;289.47;;;28.03;;
75156;SDS011;63736;50.076;8.198;2023-02-15T05:06:26;295.60;;;30.10;;
75156;SDS011;63736;50.076;8.198;2023-02-15T05:08:51;295.63;;;29.33;;
75156;SDS011;63736;50.076;8.198;2023-02-15T05:11:17;298.53;;;30.33;;
75156;SDS011;63736;50.076;8.198;2023-02-15T05:13:42;294.65;;;29.95;;
75156;SDS011;63736;50.076;8.198;2023-02-15T05:16:07;298.53;;;30.03;;
75156;SDS011;63736;50.076;8.198;2023-02-15T05:18:32;297.57;;;30.10;;
75156;SDS011;63736;50.076;8.198;2023-02-15T05:20:58;290.75;;;29.05;;
75156;SDS011;63736;50.076;8.198;2023-02-15T05:23:23;290.50;;;28.00;;
75156;SDS011;63736;50.076;8.198;2023-02-15T05:25:49;293.70;;;29.60;;
75156;SDS011;63736;50.076;8.198;2023-02-15T05:28:34;293.13;;;29.53;;
75156;SDS011;63736;50.076;8.198;2023-02-15T05:31:04;292.25;;;27.60;;
75156;SDS011;63736;50.076;8.198;2023-02-15T05:33:32;295.77;;;29.27;;
75156;SDS011;63736;50.076;8.198;2023-02-15T05:35:58;293.90;;;29.70;;
75156;SDS011;63736;50.076;8.198;2023-02-15T05:38:24;291.77;;;28.03;;
75156;SDS011;63736;50.076;8.198;2023-02-15T05:40:50;291.42;;;27.73;;
75156;SDS011;63736;50.076;8.198;2023-02-15T05:43:16;289.55;;;29.10;;
75156;SDS011;63736;50.076;8.198;2023-02-15T05:45:44;291.93;;;28.77;;
75156;SDS011;63736;50.076;8.198;2023-02-15T05:48:10;293.60;;;33.10;;
75156;SDS011;63736;50.076;8.198;2023-02-15T05:50:35;291.50;;;28.40;;
75156;SDS011;63736;50.076;8.198;2023-02-15T05:53:00;292.00;;;33.40;;
75156;SDS011;63736;50.076;8.198;2023-02-15T05:55:26;288.23;;;28.57;;
75156;SDS011;63736;50.076;8.198;2023-02-15T05:57:51;295.20;;;33.95;;
75156;SDS011;63736;50.076;8.198;2023-02-15T06:00:17;290.10;;;28.20;;
75156;SDS011;63736;50.076;8.198;2023-02-15T06:02:42;297.80;;;33.65;;
75156;SDS011;63736;50.076;8.198;2023-02-15T06:05:07;288.77;;;28.30;;
75156;SDS011;63736;50.076;8.198;2023-02-15T06:07:33;287.70;;;27.40;;
75156;SDS011;63736;50.076;8.198;2023-02-15T06:09:58;287.37;;;28.20;;
75156;SDS011;63736;50.076;8.198;2023-02-15T06:12:23;286.80;;;28.10;;
75156;SDS011;63736;50.076;8.198;2023-02-15T06:14:49;282.92;;;26.77;;
75156;SDS011;63736;50.076;8.198;2023-02-15T06:17:14;284.15;;;27.80;;
75156;SDS011;63736;50.076;8.198;2023-02-15T06:19:41;288.95;;;28.13;;
75156;SDS011;63736;50.076;8.198;2023-02-15T06:22:06;281.87;;;27.23;;
75156;SDS011;63736;50.076;8.198;2023-02-15T06:24:32;280.10;;;25.75;;
75156;SDS011;63736;50.076;8.198;2023-02-15T06:26:57;283.75;;;27.40;;
75156;SDS011;63736;50.076;8.198;2023-02-15T06:29:22;282.80;;;26.83;;
75156;SDS011;63736;50.076;8.198;2023-02-15T06:31:48;281.20;;;26.43;;
75156;SDS011;63736;50.076;8.198;2023-02-15T06:34:13;283.20;;;28.40;;
75156;SDS011;63736;50.076;8.198;2023-02-15T06:36:38;281.50;;;26.60;;
75156;SDS011;63736;50.076;8.198;2023-02-15T06:39:04;282.27;;;27.30;;
75156;SDS011;63736;50.076;8.198;2023-02-15T06:41:29;283.90;;;27.92;;
75156;SDS011;63736;50.076;8.198;2023-02-15T06:43:55;281.20;;;27.55;;
75156;SDS011;63736;50.076;8.198;2023-02-15T06:46:20;284.37;;;27.43;;
75156;SDS011;63736;50.076;8.198;2023-02-15T06:48:45;280.70;;;27.00;;
75156;SDS011;63736;50.076;8.198;2023-02-15T06:51:10;281.30;;;26.50;;
75156;SDS011;63736;50.076;8.198;2023-02-15T07:37:17;278.13;;;26.67;;
